YSY weather

Sachs Harbour (David Nasogaluak Jr. Saaryuaq) Airport
Sachs Harbour, Northwest Territories, Canada

Public forecast

Using degrees Celsius for public forecast. Weather courtesy of forecast.io.

METAR (pilot weather report)

Report is more than 6 hours old.

Retrieved 2019/04/25 23:00 UTC (11 hours ago):

CYSY 252300Z 36019G24KT 10SM -SN BCFG SCT006 OVC011 M13/M16 A3026 RMK SF3SC5 SNW CVR MUCH LOOSE S02 AFT 13UTC LAST OBS/NEXT 261300Z SLP262

TAF (pilot weather forecast)

Forecast is more than 12 hours old.

Retrieved 2019/04/25 19:00 UTC (15 hours ago):

TAF CYSY 251838Z 2519/2523 01012KT 3SM -SN BR OVC006 TEMPO 2519/2521 P6SM NSW BKN012 OVC025 FM252100 36020KT P6SM SCT020 TEMPO 2521/2523 BKN020 RMK NXT FCST WILL BE ISSUED AT 261445Z